sensor_id;sensor_type;location;lat;lon;timestamp;P1;durP1;ratioP1;P2;durP2;ratioP2
74789;SDS011;63318;52.406;13.416;2023-07-13T00:02:19;7.50;;;2.60;;
74789;SDS011;63318;52.406;13.416;2023-07-13T00:04:47;6.60;;;2.40;;
74789;SDS011;63318;52.406;13.416;2023-07-13T00:07:16;6.60;;;2.50;;
74789;SDS011;63318;52.406;13.416;2023-07-13T00:09:44;4.90;;;2.20;;
74789;SDS011;63318;52.406;13.416;2023-07-13T00:12:24;6.20;;;2.40;;
74789;SDS011;63318;52.406;13.416;2023-07-13T00:14:54;9.20;;;2.70;;
74789;SDS011;63318;52.406;13.416;2023-07-13T00:17:23;4.80;;;2.30;;
74789;SDS011;63318;52.406;13.416;2023-07-13T00:19:52;6.90;;;2.70;;
74789;SDS011;63318;52.406;13.416;2023-07-13T00:22:21;5.30;;;2.10;;
74789;SDS011;63318;52.406;13.416;2023-07-13T00:24:50;5.40;;;2.20;;
74789;SDS011;63318;52.406;13.416;2023-07-13T00:27:18;5.10;;;2.60;;
74789;SDS011;63318;52.406;13.416;2023-07-13T00:29:46;5.10;;;2.50;;
74789;SDS011;63318;52.406;13.416;2023-07-13T00:32:15;5.40;;;2.50;;
74789;SDS011;63318;52.406;13.416;2023-07-13T00:34:43;6.00;;;2.30;;
74789;SDS011;63318;52.406;13.416;2023-07-13T00:37:11;5.20;;;2.10;;
74789;SDS011;63318;52.406;13.416;2023-07-13T00:39:39;5.30;;;2.50;;
74789;SDS011;63318;52.406;13.416;2023-07-13T00:42:08;6.60;;;2.70;;
74789;SDS011;63318;52.406;13.416;2023-07-13T00:44:36;6.50;;;2.90;;
74789;SDS011;63318;52.406;13.416;2023-07-13T00:47:04;5.40;;;2.00;;
74789;SDS011;63318;52.406;13.416;2023-07-13T00:49:33;4.70;;;2.30;;
74789;SDS011;63318;52.406;13.416;2023-07-13T00:52:04;6.30;;;2.50;;
74789;SDS011;63318;52.406;13.416;2023-07-13T00:54:35;5.90;;;2.50;;
74789;SDS011;63318;52.406;13.416;2023-07-13T00:57:07;7.70;;;2.60;;
74789;SDS011;63318;52.406;13.416;2023-07-13T00:59:39;3.60;;;2.10;;
74789;SDS011;63318;52.406;13.416;2023-07-13T01:02:09;6.20;;;2.40;;
74789;SDS011;63318;52.406;13.416;2023-07-13T01:04:38;4.30;;;2.30;;
74789;SDS011;63318;52.406;13.416;2023-07-13T01:07:07;7.70;;;2.50;;
74789;SDS011;63318;52.406;13.416;2023-07-13T01:09:36;6.30;;;2.40;;
74789;SDS011;63318;52.406;13.416;2023-07-13T01:12:04;5.10;;;2.40;;
74789;SDS011;63318;52.406;13.416;2023-07-13T01:14:34;4.90;;;2.70;;
74789;SDS011;63318;52.406;13.416;2023-07-13T01:17:03;7.00;;;2.70;;
74789;SDS011;63318;52.406;13.416;2023-07-13T01:19:33;5.70;;;2.50;;
74789;SDS011;63318;52.406;13.416;2023-07-13T01:22:06;4.60;;;2.40;;
74789;SDS011;63318;52.406;13.416;2023-07-13T01:24:37;6.00;;;2.70;;
74789;SDS011;63318;52.406;13.416;2023-07-13T01:27:07;5.70;;;3.20;;
74789;SDS011;63318;52.406;13.416;2023-07-13T01:29:38;6.60;;;2.60;;
74789;SDS011;63318;52.406;13.416;2023-07-13T01:32:09;5.10;;;2.60;;
74789;SDS011;63318;52.406;13.416;2023-07-13T01:34:39;4.60;;;2.60;;
74789;SDS011;63318;52.406;13.416;2023-07-13T01:37:07;6.20;;;2.80;;
74789;SDS011;63318;52.406;13.416;2023-07-13T01:39:36;5.00;;;2.30;;
74789;SDS011;63318;52.406;13.416;2023-07-13T01:42:04;6.00;;;2.80;;
74789;SDS011;63318;52.406;13.416;2023-07-13T01:44:33;5.00;;;2.60;;
74789;SDS011;63318;52.406;13.416;2023-07-13T01:47:01;5.30;;;2.50;;
74789;SDS011;63318;52.406;13.416;2023-07-13T01:49:30;5.30;;;2.70;;
74789;SDS011;63318;52.406;13.416;2023-07-13T01:51:58;4.60;;;2.20;;
74789;SDS011;63318;52.406;13.416;2023-07-13T01:54:27;6.30;;;2.70;;
74789;SDS011;63318;52.406;13.416;2023-07-13T01:56:55;7.00;;;3.20;;
74789;SDS011;63318;52.406;13.416;2023-07-13T01:59:23;10.30;;;2.80;;
74789;SDS011;63318;52.406;13.416;2023-07-13T02:01:51;3.80;;;2.00;;
74789;SDS011;63318;52.406;13.416;2023-07-13T02:04:20;4.60;;;2.50;;
74789;SDS011;63318;52.406;13.416;2023-07-13T02:06:48;4.70;;;2.40;;
74789;SDS011;63318;52.406;13.416;2023-07-13T02:09:16;7.70;;;2.70;;
74789;SDS011;63318;52.406;13.416;2023-07-13T02:11:44;5.70;;;2.60;;
74789;SDS011;63318;52.406;13.416;2023-07-13T02:14:13;7.40;;;3.30;;
74789;SDS011;63318;52.406;13.416;2023-07-13T02:16:41;8.10;;;2.80;;
74789;SDS011;63318;52.406;13.416;2023-07-13T02:19:09;4.90;;;2.40;;
74789;SDS011;63318;52.406;13.416;2023-07-13T02:21:38;4.80;;;2.60;;
74789;SDS011;63318;52.406;13.416;2023-07-13T02:24:06;6.10;;;2.40;;
74789;SDS011;63318;52.406;13.416;2023-07-13T02:26:34;5.70;;;2.60;;
74789;SDS011;63318;52.406;13.416;2023-07-13T02:29:03;5.90;;;2.90;;
74789;SDS011;63318;52.406;13.416;2023-07-13T02:31:31;4.50;;;2.70;;
74789;SDS011;63318;52.406;13.416;2023-07-13T02:33:59;4.40;;;2.50;;
74789;SDS011;63318;52.406;13.416;2023-07-13T02:36:27;4.20;;;2.70;;
74789;SDS011;63318;52.406;13.416;2023-07-13T02:38:56;5.50;;;2.60;;
74789;SDS011;63318;52.406;13.416;2023-07-13T02:41:24;4.80;;;2.70;;
74789;SDS011;63318;52.406;13.416;2023-07-13T02:43:52;8.10;;;2.70;;
74789;SDS011;63318;52.406;13.416;2023-07-13T02:46:21;5.90;;;2.90;;
74789;SDS011;63318;52.406;13.416;2023-07-13T02:48:49;7.20;;;2.90;;
74789;SDS011;63318;52.406;13.416;2023-07-13T02:51:17;5.60;;;3.40;;
74789;SDS011;63318;52.406;13.416;2023-07-13T02:53:46;6.90;;;3.00;;
74789;SDS011;63318;52.406;13.416;2023-07-13T02:56:14;5.00;;;2.70;;
74789;SDS011;63318;52.406;13.416;2023-07-13T02:58:42;6.50;;;2.80;;
74789;SDS011;63318;52.406;13.416;2023-07-13T03:01:11;6.90;;;3.10;;
74789;SDS011;63318;52.406;13.416;2023-07-13T03:03:39;8.60;;;3.30;;
74789;SDS011;63318;52.406;13.416;2023-07-13T03:06:07;6.50;;;3.30;;
74789;SDS011;63318;52.406;13.416;2023-07-13T03:08:35;6.20;;;3.10;;
74789;SDS011;63318;52.406;13.416;2023-07-13T03:11:04;5.90;;;3.20;;
74789;SDS011;63318;52.406;13.416;2023-07-13T03:13:34;6.70;;;3.20;;
74789;SDS011;63318;52.406;13.416;2023-07-13T03:16:03;5.60;;;2.80;;
74789;SDS011;63318;52.406;13.416;2023-07-13T03:18:32;5.30;;;3.20;;
74789;SDS011;63318;52.406;13.416;2023-07-13T03:21:01;5.50;;;2.60;;
74789;SDS011;63318;52.406;13.416;2023-07-13T03:23:30;7.20;;;3.00;;
74789;SDS011;63318;52.406;13.416;2023-07-13T03:26:02;6.00;;;3.10;;
74789;SDS011;63318;52.406;13.416;2023-07-13T03:28:34;7.20;;;2.90;;
74789;SDS011;63318;52.406;13.416;2023-07-13T03:31:04;6.60;;;3.10;;
74789;SDS011;63318;52.406;13.416;2023-07-13T03:33:34;5.60;;;2.70;;
74789;SDS011;63318;52.406;13.416;2023-07-13T03:36:03;5.60;;;3.10;;
74789;SDS011;63318;52.406;13.416;2023-07-13T03:38:33;6.10;;;2.90;;
74789;SDS011;63318;52.406;13.416;2023-07-13T03:41:01;5.20;;;2.60;;
74789;SDS011;63318;52.406;13.416;2023-07-13T03:43:29;4.40;;;3.10;;
74789;SDS011;63318;52.406;13.416;2023-07-13T03:45:57;6.90;;;3.10;;
74789;SDS011;63318;52.406;13.416;2023-07-13T03:48:26;5.50;;;3.40;;
74789;SDS011;63318;52.406;13.416;2023-07-13T03:50:54;6.10;;;3.00;;
74789;SDS011;63318;52.406;13.416;2023-07-13T03:53:22;4.80;;;2.70;;
74789;SDS011;63318;52.406;13.416;2023-07-13T03:55:50;5.90;;;3.30;;
74789;SDS011;63318;52.406;13.416;2023-07-13T03:58:26;7.40;;;3.20;;
74789;SDS011;63318;52.406;13.416;2023-07-13T04:01:00;6.00;;;3.30;;
74789;SDS011;63318;52.406;13.416;2023-07-13T04:03:29;5.70;;;3.10;;
74789;SDS011;63318;52.406;13.416;2023-07-13T04:05:58;5.80;;;3.00;;
74789;SDS011;63318;52.406;13.416;2023-07-13T04:08:28;7.60;;;3.20;;
74789;SDS011;63318;52.406;13.416;2023-07-13T04:10:58;5.80;;;3.10;;
74789;SDS011;63318;52.406;13.416;2023-07-13T04:13:27;4.90;;;3.10;;
74789;SDS011;63318;52.406;13.416;2023-07-13T04:15:56;4.90;;;2.90;;
74789;SDS011;63318;52.406;13.416;2023-07-13T04:18:24;5.70;;;2.90;;
74789;SDS011;63318;52.406;13.416;2023-07-13T04:20:52;5.20;;;2.80;;
74789;SDS011;63318;52.406;13.416;2023-07-13T04:23:21;5.30;;;3.20;;
74789;SDS011;63318;52.406;13.416;2023-07-13T04:25:51;6.50;;;2.80;;
74789;SDS011;63318;52.406;13.416;2023-07-13T04:28:20;6.40;;;3.20;;
74789;SDS011;63318;52.406;13.416;2023-07-13T04:30:50;6.40;;;3.00;;
74789;SDS011;63318;52.406;13.416;2023-07-13T04:33:19;5.80;;;2.90;;
74789;SDS011;63318;52.406;13.416;2023-07-13T04:35:47;4.70;;;3.20;;
74789;SDS011;63318;52.406;13.416;2023-07-13T04:38:16;6.60;;;3.00;;
74789;SDS011;63318;52.406;13.416;2023-07-13T04:40:45;8.40;;;2.90;;
74789;SDS011;63318;52.406;13.416;2023-07-13T04:43:14;8.10;;;3.30;;
74789;SDS011;63318;52.406;13.416;2023-07-13T04:45:42;6.80;;;3.40;;
74789;SDS011;63318;52.406;13.416;2023-07-13T04:48:11;5.60;;;2.90;;
74789;SDS011;63318;52.406;13.416;2023-07-13T04:50:39;6.70;;;3.50;;
74789;SDS011;63318;52.406;13.416;2023-07-13T04:53:07;6.80;;;2.80;;
74789;SDS011;63318;52.406;13.416;2023-07-13T04:55:35;7.50;;;2.90;;
74789;SDS011;63318;52.406;13.416;2023-07-13T04:58:05;5.50;;;2.60;;
74789;SDS011;63318;52.406;13.416;2023-07-13T05:00:33;7.60;;;3.40;;
74789;SDS011;63318;52.406;13.416;2023-07-13T05:03:02;8.10;;;3.60;;
74789;SDS011;63318;52.406;13.416;2023-07-13T05:05:31;12.40;;;4.10;;
74789;SDS011;63318;52.406;13.416;2023-07-13T05:07:59;8.10;;;3.70;;
74789;SDS011;63318;52.406;13.416;2023-07-13T05:10:28;8.10;;;3.20;;
74789;SDS011;63318;52.406;13.416;2023-07-13T05:12:57;8.30;;;3.60;;
74789;SDS011;63318;52.406;13.416;2023-07-13T05:15:26;5.30;;;3.60;;
74789;SDS011;63318;52.406;13.416;2023-07-13T05:17:54;6.80;;;3.40;;
74789;SDS011;63318;52.406;13.416;2023-07-13T05:20:22;6.50;;;3.20;;
74789;SDS011;63318;52.406;13.416;2023-07-13T05:22:51;6.10;;;2.80;;
74789;SDS011;63318;52.406;13.416;2023-07-13T05:25:19;6.50;;;3.30;;
74789;SDS011;63318;52.406;13.416;2023-07-13T05:27:47;6.90;;;2.80;;
74789;SDS011;63318;52.406;13.416;2023-07-13T05:30:15;7.20;;;2.80;;
74789;SDS011;63318;52.406;13.416;2023-07-13T05:32:44;6.30;;;2.60;;
74789;SDS011;63318;52.406;13.416;2023-07-13T05:35:12;8.40;;;3.10;;
74789;SDS011;63318;52.406;13.416;2023-07-13T05:37:40;7.10;;;2.50;;
74789;SDS011;63318;52.406;13.416;2023-07-13T05:40:09;6.20;;;2.40;;
74789;SDS011;63318;52.406;13.416;2023-07-13T05:42:37;6.00;;;2.60;;
74789;SDS011;63318;52.406;13.416;2023-07-13T05:45:06;6.30;;;2.50;;
74789;SDS011;63318;52.406;13.416;2023-07-13T05:47:35;6.80;;;2.50;;
74789;SDS011;63318;52.406;13.416;2023-07-13T05:50:04;5.70;;;2.10;;
74789;SDS011;63318;52.406;13.416;2023-07-13T05:52:34;5.70;;;2.40;;
74789;SDS011;63318;52.406;13.416;2023-07-13T05:55:03;7.30;;;2.10;;
74789;SDS011;63318;52.406;13.416;2023-07-13T05:57:34;4.90;;;2.20;;
74789;SDS011;63318;52.406;13.416;2023-07-13T06:00:03;5.30;;;2.30;;
74789;SDS011;63318;52.406;13.416;2023-07-13T06:02:32;5.60;;;1.70;;
74789;SDS011;63318;52.406;13.416;2023-07-13T06:05:00;26.90;;;3.80;;
74789;SDS011;63318;52.406;13.416;2023-07-13T06:07:29;5.90;;;2.10;;
74789;SDS011;63318;52.406;13.416;2023-07-13T06:09:57;5.00;;;1.70;;
74789;SDS011;63318;52.406;13.416;2023-07-13T06:12:25;4.70;;;2.00;;
74789;SDS011;63318;52.406;13.416;2023-07-13T06:14:54;4.60;;;1.70;;
74789;SDS011;63318;52.406;13.416;2023-07-13T06:17:22;6.20;;;2.30;;
74789;SDS011;63318;52.406;13.416;2023-07-13T06:19:51;4.70;;;1.80;;
74789;SDS011;63318;52.406;13.416;2023-07-13T06:22:19;5.50;;;2.10;;
74789;SDS011;63318;52.406;13.416;2023-07-13T06:24:47;5.10;;;1.60;;
74789;SDS011;63318;52.406;13.416;2023-07-13T06:27:15;5.70;;;1.60;;
74789;SDS011;63318;52.406;13.416;2023-07-13T06:29:44;5.80;;;1.40;;
74789;SDS011;63318;52.406;13.416;2023-07-13T06:32:12;5.90;;;2.00;;
74789;SDS011;63318;52.406;13.416;2023-07-13T06:34:40;5.10;;;1.50;;
74789;SDS011;63318;52.406;13.416;2023-07-13T06:37:09;5.80;;;1.70;;
74789;SDS011;63318;52.406;13.416;2023-07-13T06:39:38;4.60;;;1.70;;
74789;SDS011;63318;52.406;13.416;2023-07-13T06:42:07;4.40;;;1.60;;
74789;SDS011;63318;52.406;13.416;2023-07-13T06:44:35;6.70;;;1.50;;
74789;SDS011;63318;52.406;13.416;2023-07-13T06:47:04;3.90;;;1.30;;
74789;SDS011;63318;52.406;13.416;2023-07-13T06:49:33;5.20;;;1.90;;
74789;SDS011;63318;52.406;13.416;2023-07-13T06:52:01;7.30;;;1.60;;
74789;SDS011;63318;52.406;13.416;2023-07-13T06:54:30;4.70;;;1.60;;
74789;SDS011;63318;52.406;13.416;2023-07-13T06:56:58;4.10;;;1.60;;
74789;SDS011;63318;52.406;13.416;2023-07-13T06:59:27;5.20;;;1.90;;
74789;SDS011;63318;52.406;13.416;2023-07-13T07:01:55;4.60;;;1.70;;
74789;SDS011;63318;52.406;13.416;2023-07-13T07:04:24;4.30;;;1.40;;
74789;SDS011;63318;52.406;13.416;2023-07-13T07:06:52;5.80;;;1.60;;
74789;SDS011;63318;52.406;13.416;2023-07-13T07:09:20;3.80;;;1.60;;
74789;SDS011;63318;52.406;13.416;2023-07-13T07:11:49;5.70;;;1.50;;
74789;SDS011;63318;52.406;13.416;2023-07-13T07:14:17;5.40;;;1.70;;
74789;SDS011;63318;52.406;13.416;2023-07-13T07:16:46;5.20;;;1.20;;
74789;SDS011;63318;52.406;13.416;2023-07-13T07:19:14;8.90;;;1.60;;
74789;SDS011;63318;52.406;13.416;2023-07-13T07:21:42;7.00;;;1.50;;
74789;SDS011;63318;52.406;13.416;2023-07-13T07:24:11;7.40;;;1.60;;
74789;SDS011;63318;52.406;13.416;2023-07-13T07:26:39;4.70;;;1.40;;
74789;SDS011;63318;52.406;13.416;2023-07-13T07:29:07;5.20;;;1.20;;
74789;SDS011;63318;52.406;13.416;2023-07-13T07:31:35;3.50;;;1.40;;
74789;SDS011;63318;52.406;13.416;2023-07-13T07:34:04;4.30;;;1.20;;
74789;SDS011;63318;52.406;13.416;2023-07-13T07:36:32;4.70;;;1.40;;
74789;SDS011;63318;52.406;13.416;2023-07-13T07:39:00;4.50;;;1.20;;
74789;SDS011;63318;52.406;13.416;2023-07-13T07:41:29;4.40;;;1.20;;
74789;SDS011;63318;52.406;13.416;2023-07-13T07:43:58;4.50;;;1.30;;
74789;SDS011;63318;52.406;13.416;2023-07-13T07:46:28;3.50;;;1.10;;
74789;SDS011;63318;52.406;13.416;2023-07-13T07:48:57;3.50;;;1.30;;
74789;SDS011;63318;52.406;13.416;2023-07-13T07:51:25;4.80;;;1.10;;
74789;SDS011;63318;52.406;13.416;2023-07-13T07:53:53;4.70;;;1.50;;
74789;SDS011;63318;52.406;13.416;2023-07-13T07:56:21;3.60;;;1.00;;
74789;SDS011;63318;52.406;13.416;2023-07-13T07:58:50;5.00;;;1.00;;
74789;SDS011;63318;52.406;13.416;2023-07-13T08:01:18;4.80;;;1.20;;
74789;SDS011;63318;52.406;13.416;2023-07-13T08:03:47;2.50;;;0.90;;
74789;SDS011;63318;52.406;13.416;2023-07-13T08:06:15;4.40;;;1.30;;
74789;SDS011;63318;52.406;13.416;2023-07-13T08:08:44;5.40;;;1.20;;
74789;SDS011;63318;52.406;13.416;2023-07-13T08:11:12;4.60;;;1.60;;
74789;SDS011;63318;52.406;13.416;2023-07-13T08:13:40;3.90;;;1.30;;
74789;SDS011;63318;52.406;13.416;2023-07-13T08:16:09;4.10;;;1.20;;
74789;SDS011;63318;52.406;13.416;2023-07-13T08:18:37;3.70;;;1.40;;
74789;SDS011;63318;52.406;13.416;2023-07-13T08:21:06;3.70;;;1.20;;
74789;SDS011;63318;52.406;13.416;2023-07-13T08:23:35;4.90;;;1.90;;
74789;SDS011;63318;52.406;13.416;2023-07-13T08:26:04;3.80;;;1.20;;
74789;SDS011;63318;52.406;13.416;2023-07-13T08:28:32;5.00;;;1.30;;
74789;SDS011;63318;52.406;13.416;2023-07-13T08:31:04;2.90;;;1.10;;
74789;SDS011;63318;52.406;13.416;2023-07-13T08:33:33;4.30;;;1.40;;
74789;SDS011;63318;52.406;13.416;2023-07-13T08:36:03;3.40;;;1.20;;
74789;SDS011;63318;52.406;13.416;2023-07-13T08:38:32;2.80;;;1.10;;
74789;SDS011;63318;52.406;13.416;2023-07-13T08:41:03;6.40;;;1.50;;
74789;SDS011;63318;52.406;13.416;2023-07-13T08:43:40;4.80;;;1.70;;
74789;SDS011;63318;52.406;13.416;2023-07-13T08:46:15;3.90;;;1.30;;
74789;SDS011;63318;52.406;13.416;2023-07-13T08:48:53;4.50;;;1.30;;
74789;SDS011;63318;52.406;13.416;2023-07-13T08:51:30;4.50;;;1.00;;
74789;SDS011;63318;52.406;13.416;2023-07-13T08:56:51;4.60;;;1.40;;
74789;SDS011;63318;52.406;13.416;2023-07-13T08:59:26;4.50;;;1.30;;
74789;SDS011;63318;52.406;13.416;2023-07-13T09:02:16;5.60;;;1.60;;
74789;SDS011;63318;52.406;13.416;2023-07-13T09:04:53;6.10;;;1.60;;
74789;SDS011;63318;52.406;13.416;2023-07-13T09:07:38;4.40;;;1.10;;
74789;SDS011;63318;52.406;13.416;2023-07-13T09:10:19;4.90;;;1.30;;
74789;SDS011;63318;52.406;13.416;2023-07-13T09:12:56;3.00;;;1.10;;
74789;SDS011;63318;52.406;13.416;2023-07-13T09:15:34;4.30;;;1.10;;
74789;SDS011;63318;52.406;13.416;2023-07-13T09:18:08;3.30;;;1.00;;
74789;SDS011;63318;52.406;13.416;2023-07-13T09:20:42;3.40;;;1.30;;
74789;SDS011;63318;52.406;13.416;2023-07-13T09:23:16;4.20;;;1.50;;
74789;SDS011;63318;52.406;13.416;2023-07-13T09:25:47;5.80;;;1.30;;
74789;SDS011;63318;52.406;13.416;2023-07-13T09:28:20;4.50;;;1.50;;
74789;SDS011;63318;52.406;13.416;2023-07-13T09:30:54;4.30;;;1.40;;
74789;SDS011;63318;52.406;13.416;2023-07-13T09:33:27;6.70;;;2.20;;
74789;SDS011;63318;52.406;13.416;2023-07-13T09:35:56;7.10;;;1.70;;
74789;SDS011;63318;52.406;13.416;2023-07-13T09:38:24;3.80;;;1.60;;
74789;SDS011;63318;52.406;13.416;2023-07-13T09:43:32;4.60;;;1.80;;
74789;SDS011;63318;52.406;13.416;2023-07-13T09:46:00;3.80;;;1.30;;
74789;SDS011;63318;52.406;13.416;2023-07-13T09:48:33;7.70;;;1.50;;
74789;SDS011;63318;52.406;13.416;2023-07-13T09:51:06;3.70;;;1.30;;
74789;SDS011;63318;52.406;13.416;2023-07-13T09:53:40;4.60;;;1.40;;
74789;SDS011;63318;52.406;13.416;2023-07-13T09:56:11;6.90;;;1.50;;
74789;SDS011;63318;52.406;13.416;2023-07-13T09:58:47;6.90;;;1.60;;
74789;SDS011;63318;52.406;13.416;2023-07-13T10:01:16;5.30;;;1.60;;
74789;SDS011;63318;52.406;13.416;2023-07-13T10:04:00;4.90;;;1.50;;
74789;SDS011;63318;52.406;13.416;2023-07-13T10:06:36;5.60;;;1.90;;
74789;SDS011;63318;52.406;13.416;2023-07-13T10:09:06;5.30;;;1.70;;
74789;SDS011;63318;52.406;13.416;2023-07-13T10:11:36;5.00;;;1.90;;
74789;SDS011;63318;52.406;13.416;2023-07-13T10:14:11;7.10;;;2.30;;
74789;SDS011;63318;52.406;13.416;2023-07-13T10:16:42;5.50;;;1.80;;
74789;SDS011;63318;52.406;13.416;2023-07-13T10:19:13;5.60;;;1.90;;
74789;SDS011;63318;52.406;13.416;2023-07-13T10:21:46;4.90;;;2.10;;
74789;SDS011;63318;52.406;13.416;2023-07-13T10:24:20;3.70;;;1.70;;
74789;SDS011;63318;52.406;13.416;2023-07-13T10:26:52;5.40;;;2.10;;
74789;SDS011;63318;52.406;13.416;2023-07-13T10:29:27;5.50;;;2.00;;
74789;SDS011;63318;52.406;13.416;2023-07-13T10:32:02;5.00;;;2.00;;
74789;SDS011;63318;52.406;13.416;2023-07-13T10:34:35;7.00;;;1.90;;
74789;SDS011;63318;52.406;13.416;2023-07-13T10:37:05;6.10;;;2.00;;
74789;SDS011;63318;52.406;13.416;2023-07-13T10:39:38;5.40;;;2.10;;
74789;SDS011;63318;52.406;13.416;2023-07-13T10:42:08;5.40;;;1.70;;
74789;SDS011;63318;52.406;13.416;2023-07-13T10:44:42;5.10;;;2.00;;
74789;SDS011;63318;52.406;13.416;2023-07-13T10:47:13;5.00;;;1.70;;
74789;SDS011;63318;52.406;13.416;2023-07-13T10:49:43;4.00;;;2.00;;
74789;SDS011;63318;52.406;13.416;2023-07-13T10:58:02;4.60;;;1.90;;
74789;SDS011;63318;52.406;13.416;2023-07-13T11:00:44;4.60;;;1.90;;
74789;SDS011;63318;52.406;13.416;2023-07-13T11:03:16;6.10;;;1.90;;
74789;SDS011;63318;52.406;13.416;2023-07-13T11:05:49;3.70;;;2.00;;
74789;SDS011;63318;52.406;13.416;2023-07-13T11:08:33;5.60;;;1.90;;
74789;SDS011;63318;52.406;13.416;2023-07-13T11:11:04;5.60;;;2.00;;
74789;SDS011;63318;52.406;13.416;2023-07-13T11:14:03;6.10;;;1.90;;
74789;SDS011;63318;52.406;13.416;2023-07-13T11:16:51;4.40;;;1.60;;
74789;SDS011;63318;52.406;13.416;2023-07-13T11:19:28;6.70;;;2.50;;
74789;SDS011;63318;52.406;13.416;2023-07-13T11:22:13;4.90;;;1.70;;
74789;SDS011;63318;52.406;13.416;2023-07-13T11:24:50;5.30;;;1.70;;
74789;SDS011;63318;52.406;13.416;2023-07-13T11:27:49;5.20;;;1.60;;
74789;SDS011;63318;52.406;13.416;2023-07-13T11:30:23;4.70;;;1.60;;
74789;SDS011;63318;52.406;13.416;2023-07-13T11:33:09;3.90;;;1.50;;
74789;SDS011;63318;52.406;13.416;2023-07-13T11:35:43;4.10;;;1.50;;
74789;SDS011;63318;52.406;13.416;2023-07-13T11:38:30;5.70;;;1.40;;
74789;SDS011;63318;52.406;13.416;2023-07-13T11:41:03;4.00;;;1.40;;
74789;SDS011;63318;52.406;13.416;2023-07-13T11:43:33;4.40;;;1.50;;
74789;SDS011;63318;52.406;13.416;2023-07-13T11:46:15;4.40;;;1.60;;
74789;SDS011;63318;52.406;13.416;2023-07-13T11:48:46;5.10;;;1.60;;
74789;SDS011;63318;52.406;13.416;2023-07-13T11:51:18;6.90;;;1.50;;
74789;SDS011;63318;52.406;13.416;2023-07-13T11:53:50;4.40;;;1.50;;
74789;SDS011;63318;52.406;13.416;2023-07-13T11:56:20;13.40;;;2.20;;
74789;SDS011;63318;52.406;13.416;2023-07-13T11:58:51;8.40;;;1.80;;
74789;SDS011;63318;52.406;13.416;2023-07-13T12:01:23;3.40;;;1.60;;
74789;SDS011;63318;52.406;13.416;2023-07-13T12:03:54;3.50;;;1.80;;
74789;SDS011;63318;52.406;13.416;2023-07-13T12:06:26;5.40;;;1.60;;
74789;SDS011;63318;52.406;13.416;2023-07-13T12:08:59;5.20;;;1.40;;
74789;SDS011;63318;52.406;13.416;2023-07-13T12:11:37;5.00;;;1.60;;
74789;SDS011;63318;52.406;13.416;2023-07-13T12:14:10;5.10;;;1.70;;
74789;SDS011;63318;52.406;13.416;2023-07-13T12:16:42;4.70;;;1.60;;
74789;SDS011;63318;52.406;13.416;2023-07-13T12:19:15;5.40;;;1.40;;
74789;SDS011;63318;52.406;13.416;2023-07-13T12:21:46;3.60;;;1.40;;
74789;SDS011;63318;52.406;13.416;2023-07-13T12:24:16;4.60;;;1.30;;
74789;SDS011;63318;52.406;13.416;2023-07-13T12:26:48;4.20;;;1.40;;
74789;SDS011;63318;52.406;13.416;2023-07-13T12:29:19;4.50;;;1.40;;
74789;SDS011;63318;52.406;13.416;2023-07-13T12:31:48;5.70;;;1.60;;
74789;SDS011;63318;52.406;13.416;2023-07-13T12:34:18;4.70;;;1.80;;
74789;SDS011;63318;52.406;13.416;2023-07-13T12:36:48;3.40;;;1.70;;
74789;SDS011;63318;52.406;13.416;2023-07-13T12:39:19;4.50;;;1.50;;
74789;SDS011;63318;52.406;13.416;2023-07-13T12:41:50;4.30;;;1.40;;
74789;SDS011;63318;52.406;13.416;2023-07-13T12:44:21;3.60;;;1.50;;
74789;SDS011;63318;52.406;13.416;2023-07-13T12:46:59;4.00;;;1.40;;
74789;SDS011;63318;52.406;13.416;2023-07-13T12:49:33;4.40;;;1.40;;
74789;SDS011;63318;52.406;13.416;2023-07-13T12:52:14;5.70;;;1.60;;
74789;SDS011;63318;52.406;13.416;2023-07-13T12:54:53;4.00;;;1.30;;
74789;SDS011;63318;52.406;13.416;2023-07-13T12:57:24;5.90;;;1.60;;
74789;SDS011;63318;52.406;13.416;2023-07-13T12:59:53;5.70;;;1.60;;
74789;SDS011;63318;52.406;13.416;2023-07-13T13:02:28;5.80;;;1.70;;
74789;SDS011;63318;52.406;13.416;2023-07-13T13:04:59;7.60;;;2.10;;
74789;SDS011;63318;52.406;13.416;2023-07-13T13:07:28;11.30;;;1.80;;
74789;SDS011;63318;52.406;13.416;2023-07-13T13:09:57;6.80;;;1.30;;
74789;SDS011;63318;52.406;13.416;2023-07-13T13:12:25;3.30;;;1.30;;
74789;SDS011;63318;52.406;13.416;2023-07-13T13:14:53;5.10;;;1.50;;
74789;SDS011;63318;52.406;13.416;2023-07-13T13:17:22;4.30;;;1.40;;
74789;SDS011;63318;52.406;13.416;2023-07-13T13:19:54;4.50;;;1.40;;
74789;SDS011;63318;52.406;13.416;2023-07-13T13:22:23;4.20;;;1.40;;
74789;SDS011;63318;52.406;13.416;2023-07-13T13:24:51;5.00;;;1.30;;
74789;SDS011;63318;52.406;13.416;2023-07-13T13:27:19;4.50;;;1.20;;
74789;SDS011;63318;52.406;13.416;2023-07-13T13:29:49;5.30;;;1.20;;
74789;SDS011;63318;52.406;13.416;2023-07-13T13:32:17;4.10;;;1.40;;
74789;SDS011;63318;52.406;13.416;2023-07-13T13:34:46;6.20;;;1.30;;
74789;SDS011;63318;52.406;13.416;2023-07-13T13:37:17;4.40;;;1.30;;
74789;SDS011;63318;52.406;13.416;2023-07-13T13:39:48;5.80;;;1.40;;
74789;SDS011;63318;52.406;13.416;2023-07-13T13:42:17;4.00;;;1.30;;
74789;SDS011;63318;52.406;13.416;2023-07-13T13:44:45;4.80;;;1.40;;
74789;SDS011;63318;52.406;13.416;2023-07-13T13:47:20;4.20;;;1.00;;
74789;SDS011;63318;52.406;13.416;2023-07-13T13:49:55;3.70;;;1.30;;
74789;SDS011;63318;52.406;13.416;2023-07-13T13:52:24;4.30;;;1.70;;
74789;SDS011;63318;52.406;13.416;2023-07-13T13:54:53;4.10;;;1.30;;
74789;SDS011;63318;52.406;13.416;2023-07-13T13:57:21;3.90;;;1.20;;
74789;SDS011;63318;52.406;13.416;2023-07-13T13:59:51;5.10;;;1.30;;
74789;SDS011;63318;52.406;13.416;2023-07-13T14:02:27;4.10;;;1.00;;
74789;SDS011;63318;52.406;13.416;2023-07-13T14:04:58;3.40;;;1.20;;
74789;SDS011;63318;52.406;13.416;2023-07-13T14:07:28;2.90;;;1.10;;
74789;SDS011;63318;52.406;13.416;2023-07-13T14:09:57;6.80;;;1.50;;
74789;SDS011;63318;52.406;13.416;2023-07-13T14:12:26;6.90;;;1.40;;
74789;SDS011;63318;52.406;13.416;2023-07-13T14:14:55;3.60;;;1.20;;
74789;SDS011;63318;52.406;13.416;2023-07-13T14:17:25;5.50;;;1.30;;
74789;SDS011;63318;52.406;13.416;2023-07-13T14:19:54;3.70;;;1.20;;
74789;SDS011;63318;52.406;13.416;2023-07-13T14:22:23;4.10;;;1.10;;
74789;SDS011;63318;52.406;13.416;2023-07-13T14:24:52;5.00;;;1.20;;
74789;SDS011;63318;52.406;13.416;2023-07-13T14:27:21;5.30;;;1.20;;
74789;SDS011;63318;52.406;13.416;2023-07-13T14:29:51;2.90;;;1.10;;
74789;SDS011;63318;52.406;13.416;2023-07-13T14:32:19;4.40;;;1.40;;
74789;SDS011;63318;52.406;13.416;2023-07-13T14:34:47;5.60;;;1.30;;
74789;SDS011;63318;52.406;13.416;2023-07-13T14:37:16;4.20;;;1.00;;
74789;SDS011;63318;52.406;13.416;2023-07-13T14:39:45;6.00;;;1.20;;
74789;SDS011;63318;52.406;13.416;2023-07-13T14:42:18;4.90;;;1.30;;
74789;SDS011;63318;52.406;13.416;2023-07-13T14:44:46;4.40;;;1.40;;
74789;SDS011;63318;52.406;13.416;2023-07-13T14:47:15;6.80;;;1.10;;
74789;SDS011;63318;52.406;13.416;2023-07-13T14:49:44;5.30;;;1.10;;
74789;SDS011;63318;52.406;13.416;2023-07-13T14:52:13;3.90;;;1.00;;
74789;SDS011;63318;52.406;13.416;2023-07-13T14:54:43;5.30;;;1.00;;
74789;SDS011;63318;52.406;13.416;2023-07-13T14:57:12;3.30;;;1.20;;
74789;SDS011;63318;52.406;13.416;2023-07-13T14:59:42;3.20;;;1.00;;
74789;SDS011;63318;52.406;13.416;2023-07-13T15:02:22;5.00;;;1.10;;
74789;SDS011;63318;52.406;13.416;2023-07-13T15:04:56;2.80;;;0.90;;